createdAt,value
2017-08-07T00:01:05.353Z,12.90
2017-08-07T00:03:33.119Z,13.00
2017-08-07T00:06:00.802Z,13.10
2017-08-07T00:08:28.322Z,13.10
2017-08-07T00:10:55.826Z,12.90
2017-08-07T00:13:23.424Z,12.80
2017-08-07T00:15:50.997Z,12.70
2017-08-07T00:18:18.504Z,12.70
2017-08-07T00:20:46.056Z,12.70
2017-08-07T00:23:13.564Z,12.70
2017-08-07T00:25:41.111Z,12.70
2017-08-07T00:28:09.074Z,12.70
2017-08-07T00:30:36.579Z,12.70
2017-08-07T00:33:04.235Z,12.80
2017-08-07T00:35:31.812Z,12.80
2017-08-07T00:37:59.343Z,12.70
2017-08-07T00:40:26.851Z,12.70
2017-08-07T00:42:54.667Z,12.70
2017-08-07T00:45:22.175Z,12.70
2017-08-07T00:47:49.672Z,12.70
2017-08-07T00:50:17.227Z,12.70
2017-08-07T00:52:44.733Z,12.60
2017-08-07T00:55:12.288Z,12.40
2017-08-07T00:57:39.820Z,12.40
2017-08-07T01:00:07.333Z,12.30
2017-08-07T01:02:34.887Z,12.30
2017-08-07T01:05:02.922Z,12.20
2017-08-07T01:07:30.451Z,12.10
2017-08-07T01:09:57.954Z,12.10
2017-08-07T01:12:25.752Z,12.10
2017-08-07T01:14:53.259Z,12.00
2017-08-07T01:17:20.770Z,11.90
2017-08-07T01:19:48.447Z,11.90
2017-08-07T01:22:15.977Z,11.90
2017-08-07T01:24:43.495Z,11.80
2017-08-07T01:27:11.060Z,11.80
2017-08-07T01:29:38.563Z,11.80
2017-08-07T01:32:06.163Z,11.80
2017-08-07T01:34:33.706Z,11.80
2017-08-07T01:37:01.399Z,11.90
2017-08-07T01:39:28.926Z,11.80
2017-08-07T01:41:56.494Z,11.80
2017-08-07T01:44:24.008Z,11.80
2017-08-07T01:46:51.507Z,11.80
2017-08-07T01:49:19.407Z,11.90
2017-08-07T01:51:46.918Z,11.90
2017-08-07T01:54:14.411Z,12.00
2017-08-07T01:56:42.466Z,11.90
2017-08-07T01:59:10.173Z,11.90
2017-08-07T02:01:37.802Z,11.90
2017-08-07T02:04:05.665Z,12.00
2017-08-07T02:06:33.248Z,11.90
2017-08-07T02:09:00.844Z,11.70
2017-08-07T02:11:28.728Z,11.70
2017-08-07T02:13:56.442Z,11.70
2017-08-07T02:16:23.987Z,11.80
2017-08-07T02:18:51.763Z,11.80
2017-08-07T02:21:19.390Z,11.80
2017-08-07T02:23:46.922Z,11.70
2017-08-07T02:26:14.630Z,11.60
2017-08-07T02:28:42.323Z,11.60
2017-08-07T02:31:09.873Z,11.70
2017-08-07T02:33:37.492Z,11.70
2017-08-07T02:36:05.007Z,11.70
2017-08-07T02:38:32.503Z,11.60
2017-08-07T02:41:00.044Z,11.50
2017-08-07T02:43:27.627Z,11.50
2017-08-07T02:45:55.132Z,11.40
2017-08-07T02:48:23.475Z,11.50
2017-08-07T02:50:51.838Z,11.60
2017-08-07T02:53:19.417Z,11.70
2017-08-07T02:55:47.089Z,11.60
2017-08-07T02:58:14.599Z,11.50
2017-08-07T03:00:42.106Z,11.50
2017-08-07T03:03:10.130Z,11.60
2017-08-07T03:05:37.783Z,11.60
2017-08-07T03:08:05.383Z,11.50
2017-08-07T03:10:33.092Z,11.50
2017-08-07T03:13:00.609Z,11.40
2017-08-07T03:15:28.176Z,11.30
2017-08-07T03:17:55.751Z,11.30
2017-08-07T03:20:23.607Z,11.20
2017-08-07T03:22:51.403Z,11.20
2017-08-07T03:25:18.959Z,11.30
2017-08-07T03:27:46.655Z,11.40
2017-08-07T03:30:14.616Z,11.40
2017-08-07T03:32:42.151Z,11.30
2017-08-07T03:35:09.779Z,11.20
2017-08-07T03:37:37.738Z,11.10
2017-08-07T03:40:05.243Z,11.00
2017-08-07T03:42:32.798Z,11.00
2017-08-07T03:45:00.971Z,11.00
2017-08-07T03:47:28.704Z,11.10
2017-08-07T03:49:56.398Z,11.20
2017-08-07T03:52:23.976Z,11.20
2017-08-07T03:54:51.487Z,11.10
2017-08-07T03:57:19.040Z,11.10
2017-08-07T03:59:46.920Z,11.00
2017-08-07T04:02:14.463Z,11.10
2017-08-07T04:04:41.960Z,11.00
2017-08-07T04:07:09.756Z,11.10
2017-08-07T04:09:37.710Z,11.20
2017-08-07T04:12:05.388Z,11.30
2017-08-07T04:14:32.951Z,11.20
2017-08-07T04:17:00.652Z,11.20
2017-08-07T04:19:28.243Z,11.10
2017-08-07T04:21:56.039Z,11.10
2017-08-07T04:24:23.542Z,11.20
2017-08-07T04:26:51.306Z,11.30
2017-08-07T04:29:18.861Z,11.30
2017-08-07T04:31:46.367Z,11.40
2017-08-07T04:34:13.872Z,11.40
2017-08-07T04:36:41.659Z,11.50
2017-08-07T04:39:09.398Z,11.50
2017-08-07T04:41:37.050Z,11.50
2017-08-07T04:44:04.785Z,11.50
2017-08-07T04:46:32.359Z,11.60
2017-08-07T04:49:00.022Z,11.70
2017-08-07T04:51:27.582Z,11.80
2017-08-07T04:53:55.110Z,11.90
2017-08-07T04:56:22.611Z,12.30
2017-08-07T04:58:50.284Z,13.20
2017-08-07T05:01:17.786Z,14.00
2017-08-07T05:03:45.282Z,14.50
2017-08-07T05:06:13.022Z,15.20
2017-08-07T05:08:40.532Z,15.90
2017-08-07T05:11:08.058Z,16.60
2017-08-07T05:13:35.612Z,17.00
2017-08-07T05:16:03.111Z,17.40
2017-08-07T05:18:31.697Z,18.20
2017-08-07T05:20:59.487Z,18.50
2017-08-07T05:23:27.035Z,19.00
2017-08-07T05:25:54.548Z,19.50
2017-08-07T05:28:22.084Z,19.80
2017-08-07T05:30:49.596Z,19.70
2017-08-07T05:33:17.134Z,19.50
2017-08-07T05:35:44.669Z,19.50
2017-08-07T05:38:12.171Z,20.00
2017-08-07T05:40:40.059Z,20.30
2017-08-07T05:43:07.568Z,20.80
2017-08-07T05:45:35.091Z,21.40
2017-08-07T05:48:02.771Z,21.90
2017-08-07T05:50:30.843Z,22.10
2017-08-07T05:52:58.483Z,22.50
2017-08-07T05:55:25.883Z,22.40
2017-08-07T05:57:53.436Z,22.80
2017-08-07T06:00:21.169Z,23.10
2017-08-07T06:02:48.757Z,23.40
2017-08-07T06:05:16.275Z,23.60
2017-08-07T06:07:44.372Z,24.00
2017-08-07T06:10:11.886Z,23.90
2017-08-07T06:12:39.325Z,23.90
2017-08-07T06:15:06.958Z,23.90
2017-08-07T06:17:34.730Z,24.10
2017-08-07T06:20:02.497Z,24.20
2017-08-07T06:22:29.995Z,24.20
2017-08-07T06:24:57.504Z,24.10
2017-08-07T06:27:25.143Z,24.20
2017-08-07T06:29:52.687Z,24.60
2017-08-07T06:32:20.187Z,24.60
2017-08-07T06:34:47.791Z,24.70
2017-08-07T06:37:15.295Z,24.70
2017-08-07T06:39:42.841Z,24.90
2017-08-07T06:42:10.828Z,24.70
2017-08-07T06:44:38.371Z,24.90
2017-08-07T06:47:06.625Z,25.00
2017-08-07T06:49:34.422Z,24.80
2017-08-07T06:52:02.098Z,25.50
2017-08-07T06:54:29.942Z,26.00
2017-08-07T06:56:57.791Z,26.00
2017-08-07T06:59:25.299Z,26.30
2017-08-07T07:01:52.795Z,26.40
2017-08-07T07:04:20.479Z,26.90
2017-08-07T07:06:47.999Z,26.70
2017-08-07T07:09:15.788Z,27.10
2017-08-07T07:11:44.475Z,27.70
2017-08-07T07:14:12.031Z,27.80
2017-08-07T07:16:39.801Z,28.60
2017-08-07T07:19:07.386Z,28.90
2017-08-07T07:21:34.906Z,29.00
2017-08-07T07:24:02.635Z,29.10
2017-08-07T07:26:30.457Z,29.20
2017-08-07T07:28:58.060Z,28.80
2017-08-07T07:31:25.566Z,28.20
2017-08-07T07:33:53.262Z,28.10
2017-08-07T07:36:20.820Z,28.70
2017-08-07T07:38:48.536Z,29.00
2017-08-07T07:41:16.239Z,27.70
2017-08-07T07:43:43.820Z,27.90
2017-08-07T07:46:11.448Z,27.60
2017-08-07T07:48:39.026Z,27.00
2017-08-07T07:51:06.585Z,27.00
2017-08-07T07:53:34.105Z,27.10
2017-08-07T07:56:01.563Z,27.00
2017-08-07T07:58:29.199Z,26.90
2017-08-07T08:00:56.711Z,27.20
2017-08-07T08:03:24.287Z,27.60
2017-08-07T08:05:51.800Z,28.40
2017-08-07T08:08:19.364Z,28.10
2017-08-07T08:10:46.946Z,27.80
2017-08-07T08:13:14.530Z,27.70
2017-08-07T08:15:42.049Z,27.60
2017-08-07T08:18:09.914Z,27.90
2017-08-07T08:20:37.426Z,27.20
2017-08-07T08:23:04.937Z,26.00
2017-08-07T08:25:32.537Z,25.60
2017-08-07T08:28:00.071Z,26.50
2017-08-07T08:30:27.580Z,27.00
2017-08-07T08:32:55.130Z,28.10
2017-08-07T08:35:22.656Z,28.30
2017-08-07T08:37:50.163Z,28.90
2017-08-07T08:40:17.759Z,27.90
2017-08-07T08:42:45.271Z,27.50
2017-08-07T08:45:12.775Z,26.70
2017-08-07T08:47:40.331Z,27.90
2017-08-07T08:50:07.835Z,27.80
2017-08-07T08:52:35.380Z,28.30
2017-08-07T08:55:02.958Z,28.20
2017-08-07T08:57:30.462Z,27.80
2017-08-07T08:59:57.989Z,28.20
2017-08-07T09:02:25.865Z,28.20
2017-08-07T09:04:53.387Z,28.10
2017-08-07T09:07:21.026Z,27.60
2017-08-07T09:09:48.829Z,28.20
2017-08-07T09:12:16.384Z,28.10
2017-08-07T09:14:43.882Z,27.90
2017-08-07T09:17:11.458Z,27.90
2017-08-07T09:19:38.964Z,28.20
2017-08-07T09:22:06.502Z,29.30
2017-08-07T09:24:33.876Z,29.00
2017-08-07T09:27:01.497Z,28.40
2017-08-07T09:29:28.997Z,27.80
2017-08-07T09:31:56.544Z,27.80
2017-08-07T09:34:24.074Z,28.10
2017-08-07T09:36:51.575Z,29.30
2017-08-07T09:39:19.127Z,29.10
2017-08-07T09:41:46.663Z,29.40
2017-08-07T09:44:14.184Z,29.00
2017-08-07T09:46:42.052Z,29.60
2017-08-07T09:49:09.571Z,30.00
2017-08-07T09:51:37.066Z,30.40
2017-08-07T09:54:04.620Z,30.80
2017-08-07T09:56:32.119Z,31.00
2017-08-07T09:58:59.667Z,31.40
2017-08-07T10:01:27.544Z,31.30
2017-08-07T10:03:55.208Z,31.60
2017-08-07T10:06:22.711Z,29.90
2017-08-07T10:08:50.264Z,30.50
2017-08-07T10:11:17.835Z,30.30
2017-08-07T10:13:45.982Z,30.00
2017-08-07T10:16:13.768Z,31.00
2017-08-07T10:18:41.286Z,29.90
2017-08-07T10:21:08.832Z,30.00
2017-08-07T10:23:36.380Z,29.90
2017-08-07T10:26:03.891Z,30.00
2017-08-07T10:28:31.421Z,30.20
2017-08-07T10:30:59.000Z,30.80
2017-08-07T10:33:26.559Z,30.30
2017-08-07T10:35:54.054Z,30.70
2017-08-07T10:38:21.939Z,30.60
2017-08-07T10:40:49.431Z,30.30
2017-08-07T10:43:16.944Z,30.70
2017-08-07T10:45:44.507Z,30.20
2017-08-07T10:48:12.019Z,30.60
2017-08-07T10:50:39.553Z,30.80
2017-08-07T10:53:07.268Z,30.30
2017-08-07T10:55:34.806Z,30.20
2017-08-07T10:58:03.165Z,30.60
2017-08-07T11:00:30.731Z,31.10
2017-08-07T11:02:58.258Z,32.20
2017-08-07T11:05:25.765Z,31.80
2017-08-07T11:07:53.323Z,31.70
2017-08-07T11:10:20.874Z,30.90
2017-08-07T11:12:48.395Z,30.80
2017-08-07T11:15:15.948Z,30.30
2017-08-07T11:17:43.455Z,30.20
2017-08-07T11:20:10.952Z,30.60
2017-08-07T11:22:38.553Z,30.50
2017-08-07T11:25:06.079Z,31.40
2017-08-07T11:27:33.594Z,31.00
2017-08-07T11:30:01.416Z,31.90
2017-08-07T11:32:28.921Z,31.80
2017-08-07T11:34:56.428Z,30.90
2017-08-07T11:37:24.558Z,31.60
2017-08-07T11:39:52.066Z,31.70
2017-08-07T11:42:19.568Z,31.70
2017-08-07T11:44:47.368Z,32.30
2017-08-07T11:47:14.864Z,31.80
2017-08-07T11:49:42.377Z,31.20
2017-08-07T11:52:09.931Z,30.50
2017-08-07T11:54:37.435Z,30.70
2017-08-07T11:57:04.940Z,31.00
2017-08-07T11:59:32.591Z,32.00
2017-08-07T12:02:00.093Z,32.60
2017-08-07T12:04:27.646Z,33.30
2017-08-07T12:06:55.439Z,32.20
2017-08-07T12:09:22.957Z,31.50
2017-08-07T12:11:50.451Z,32.10
2017-08-07T12:14:18.434Z,31.90
2017-08-07T12:16:45.970Z,30.80
2017-08-07T12:19:13.532Z,31.00
2017-08-07T12:21:41.091Z,30.20
2017-08-07T12:24:08.602Z,29.80
2017-08-07T12:26:36.147Z,30.30
2017-08-07T12:29:03.986Z,31.60
2017-08-07T12:31:31.807Z,32.10
2017-08-07T12:33:59.346Z,32.50
2017-08-07T12:36:27.198Z,32.10
2017-08-07T12:38:54.699Z,31.40
2017-08-07T12:41:22.239Z,31.00
2017-08-07T12:43:50.051Z,31.50
2017-08-07T12:46:17.563Z,31.50
2017-08-07T12:48:45.076Z,31.30
2017-08-07T12:51:12.783Z,31.30
2017-08-07T12:53:40.279Z,31.50
2017-08-07T12:56:07.787Z,32.00
2017-08-07T12:58:35.352Z,31.80
2017-08-07T13:01:02.856Z,30.60
2017-08-07T13:03:30.371Z,30.70
2017-08-07T13:05:57.959Z,31.40
2017-08-07T13:08:25.478Z,30.90
2017-08-07T13:10:52.983Z,31.10
2017-08-07T13:13:20.556Z,31.30
2017-08-07T13:15:48.898Z,31.90
2017-08-07T13:18:16.431Z,31.90
2017-08-07T13:20:43.971Z,31.00
2017-08-07T13:23:11.511Z,30.50
2017-08-07T13:25:39.024Z,31.10
2017-08-07T13:28:06.580Z,31.20
2017-08-07T13:30:34.007Z,31.50
2017-08-07T13:33:01.603Z,31.20
2017-08-07T13:35:29.219Z,31.80
2017-08-07T13:37:56.727Z,31.30
2017-08-07T13:40:24.356Z,32.20
2017-08-07T13:42:51.915Z,32.10
2017-08-07T13:45:19.422Z,31.40
2017-08-07T13:47:46.936Z,31.60
2017-08-07T13:50:14.498Z,32.10
2017-08-07T13:52:42.063Z,31.30
2017-08-07T13:55:09.574Z,31.40
2017-08-07T13:57:37.803Z,31.60
2017-08-07T14:00:05.344Z,32.20
2017-08-07T14:02:32.851Z,32.70
2017-08-07T14:05:00.406Z,33.30
2017-08-07T14:07:27.972Z,33.20
2017-08-07T14:09:55.520Z,32.80
2017-08-07T14:12:23.099Z,32.00
2017-08-07T14:14:50.631Z,31.20
2017-08-07T14:17:18.123Z,31.10
2017-08-07T14:19:45.982Z,31.00
2017-08-07T14:22:13.623Z,32.00
2017-08-07T14:24:41.136Z,32.00
2017-08-07T14:27:08.703Z,31.60
2017-08-07T14:29:36.219Z,32.00
2017-08-07T14:32:03.485Z,32.10
2017-08-07T14:34:31.222Z,31.10
2017-08-07T14:36:58.818Z,30.80
2017-08-07T14:39:26.327Z,30.80
2017-08-07T14:41:53.933Z,30.50
2017-08-07T14:44:21.468Z,30.50
2017-08-07T14:46:49.023Z,30.90
2017-08-07T14:49:16.595Z,30.60
2017-08-07T14:51:44.108Z,30.50
2017-08-07T14:54:11.614Z,31.10
2017-08-07T14:56:39.167Z,31.10
2017-08-07T14:59:06.695Z,31.30
2017-08-07T15:01:34.205Z,31.80
2017-08-07T15:04:01.756Z,31.90
2017-08-07T15:06:29.268Z,31.60
2017-08-07T15:08:56.779Z,31.00
2017-08-07T15:11:24.362Z,30.30
2017-08-07T15:13:51.881Z,29.50
2017-08-07T15:16:19.395Z,29.90
2017-08-07T15:18:46.960Z,30.50
2017-08-07T15:21:14.574Z,30.30
2017-08-07T15:23:42.137Z,30.30
2017-08-07T15:26:09.968Z,30.30
2017-08-07T15:28:37.474Z,30.40
2017-08-07T15:31:04.988Z,30.80
2017-08-07T15:33:32.813Z,30.90
2017-08-07T15:36:00.607Z,30.30
2017-08-07T15:38:28.701Z,30.50
2017-08-07T15:40:56.383Z,30.50
2017-08-07T15:43:24.132Z,30.30
2017-08-07T15:45:52.083Z,30.30
2017-08-07T15:48:19.624Z,30.90
2017-08-07T15:50:47.153Z,30.80
2017-08-07T15:53:15.013Z,30.50
2017-08-07T15:55:42.535Z,30.40
2017-08-07T15:58:11.015Z,30.40
2017-08-07T16:00:38.572Z,30.30
2017-08-07T16:03:06.080Z,29.90
2017-08-07T16:05:33.583Z,29.70
2017-08-07T16:08:01.698Z,30.00
2017-08-07T16:10:29.205Z,30.00
2017-08-07T16:12:58.165Z,29.80
2017-08-07T16:15:26.056Z,29.90
2017-08-07T16:17:54.155Z,30.10
2017-08-07T16:22:59.447Z,29.80
2017-08-07T16:25:27.044Z,29.20
2017-08-07T16:27:54.842Z,29.40
2017-08-07T16:30:31.342Z,29.40
2017-08-07T16:32:58.851Z,29.80
2017-08-07T16:35:26.374Z,30.00
2017-08-07T16:37:53.932Z,29.80
2017-08-07T16:40:21.442Z,29.10
2017-08-07T16:42:49.006Z,29.00
2017-08-07T16:45:16.590Z,28.90
2017-08-07T16:47:44.123Z,29.00
2017-08-07T16:50:11.630Z,28.90
2017-08-07T16:52:39.210Z,28.70
2017-08-07T16:55:06.731Z,28.80
2017-08-07T16:57:34.232Z,28.80
2017-08-07T17:00:02.018Z,29.00
2017-08-07T17:02:29.549Z,28.70
2017-08-07T17:04:57.064Z,28.50
2017-08-07T17:07:25.351Z,28.50
2017-08-07T17:09:52.867Z,28.20
2017-08-07T17:12:20.522Z,28.10
2017-08-07T17:14:48.315Z,28.00
2017-08-07T17:17:15.858Z,27.80
2017-08-07T17:19:43.435Z,27.70
2017-08-07T17:22:11.255Z,27.50
2017-08-07T17:24:38.815Z,27.50
2017-08-07T17:27:06.451Z,27.50
2017-08-07T17:29:34.011Z,27.20
2017-08-07T17:32:01.526Z,26.80
2017-08-07T17:34:29.031Z,26.90
2017-08-07T17:36:57.023Z,27.30
2017-08-07T17:39:24.541Z,27.40
2017-08-07T17:41:52.078Z,27.20
2017-08-07T17:44:19.651Z,27.10
2017-08-07T17:46:47.184Z,26.90
2017-08-07T17:49:14.691Z,27.00
2017-08-07T17:51:42.564Z,26.80
2017-08-07T17:54:10.244Z,26.80
2017-08-07T17:56:38.871Z,26.70
2017-08-07T17:59:06.895Z,26.70
2017-08-07T18:01:35.017Z,26.50
2017-08-07T18:04:02.572Z,26.30
2017-08-07T18:06:30.155Z,26.10
2017-08-07T18:08:57.707Z,26.00
2017-08-07T18:11:25.250Z,25.50
2017-08-07T18:13:53.038Z,25.30
2017-08-07T18:16:21.334Z,25.00
2017-08-07T18:18:48.976Z,24.70
2017-08-07T18:21:17.235Z,24.50
2017-08-07T18:23:44.781Z,24.30
2017-08-07T18:26:12.295Z,24.10
2017-08-07T18:28:40.098Z,24.10
2017-08-07T18:31:07.602Z,23.90
2017-08-07T18:33:36.222Z,23.70
2017-08-07T18:36:05.067Z,23.50
2017-08-07T18:38:32.648Z,23.50
2017-08-07T18:41:00.152Z,23.30
2017-08-07T18:43:27.696Z,23.20
2017-08-07T18:45:55.229Z,23.00
2017-08-07T18:48:22.860Z,22.90
2017-08-07T18:50:50.519Z,22.70
2017-08-07T18:53:18.115Z,22.50
2017-08-07T18:55:46.364Z,22.40
2017-08-07T18:58:13.955Z,22.40
2017-08-07T19:00:41.456Z,22.40
2017-08-07T19:03:08.968Z,22.30
2017-08-07T19:05:36.538Z,22.10
2017-08-07T19:08:04.466Z,22.00
2017-08-07T19:10:32.062Z,21.90
2017-08-07T19:12:59.619Z,21.80
2017-08-07T19:15:27.862Z,21.70
2017-08-07T19:17:55.947Z,21.50
2017-08-07T19:20:24.287Z,21.40
2017-08-07T19:22:51.844Z,21.30
2017-08-07T19:25:20.111Z,21.20
2017-08-07T19:27:47.664Z,21.20
2017-08-07T19:30:15.190Z,21.10
2017-08-07T19:32:42.838Z,21.00
2017-08-07T19:35:11.580Z,20.90
2017-08-07T19:37:39.099Z,20.80
2017-08-07T19:40:06.651Z,20.70
2017-08-07T19:42:34.386Z,20.50
2017-08-07T19:45:02.582Z,20.40
2017-08-07T19:47:30.103Z,20.40
2017-08-07T19:49:57.606Z,20.30
2017-08-07T19:52:25.470Z,20.20
2017-08-07T19:54:53.639Z,20.10
2017-08-07T19:57:21.151Z,20.00
2017-08-07T19:59:48.700Z,19.90
2017-08-07T20:02:16.211Z,19.70
2017-08-07T20:04:43.711Z,19.60
2017-08-07T20:07:11.516Z,19.60
2017-08-07T20:09:39.021Z,19.60
2017-08-07T20:12:06.524Z,19.50
2017-08-07T20:14:34.170Z,19.40
2017-08-07T20:17:01.675Z,19.30
2017-08-07T20:19:29.363Z,19.20
2017-08-07T20:21:56.902Z,19.20
2017-08-07T20:24:24.407Z,19.10
2017-08-07T20:26:51.902Z,18.90
2017-08-07T20:29:20.058Z,18.80
2017-08-07T20:31:47.559Z,18.60
2017-08-07T20:34:15.072Z,18.60
2017-08-07T20:36:42.639Z,18.60
2017-08-07T20:39:10.267Z,18.50
2017-08-07T20:41:37.772Z,18.50
2017-08-07T20:44:05.341Z,18.40
2017-08-07T20:46:32.854Z,18.30
2017-08-07T20:49:00.394Z,18.40
2017-08-07T20:51:28.048Z,18.30
2017-08-07T20:53:55.562Z,18.30
2017-08-07T20:56:23.068Z,18.30
2017-08-07T20:58:50.647Z,18.40
2017-08-07T21:01:18.159Z,18.40
2017-08-07T21:03:45.696Z,18.30
2017-08-07T21:06:13.255Z,18.30
2017-08-07T21:08:40.758Z,18.20
2017-08-07T21:11:08.287Z,18.20
2017-08-07T21:13:35.835Z,18.10
2017-08-07T21:16:03.347Z,18.10
2017-08-07T21:18:30.934Z,18.10
2017-08-07T21:20:59.234Z,18.00
2017-08-07T21:23:26.791Z,18.00
2017-08-07T21:25:54.311Z,18.00
2017-08-07T21:28:22.174Z,17.90
2017-08-07T21:30:49.691Z,17.80
2017-08-07T21:33:17.267Z,17.90
2017-08-07T21:35:44.823Z,18.00
2017-08-07T21:38:12.326Z,18.00
2017-08-07T21:40:39.829Z,17.90
2017-08-07T21:43:07.484Z,17.90
2017-08-07T21:45:34.997Z,18.00
2017-08-07T21:48:02.502Z,18.00
2017-08-07T21:50:30.068Z,17.90
2017-08-07T21:52:57.749Z,17.80
2017-08-07T21:55:25.267Z,17.80
2017-08-07T21:57:53.135Z,17.70
2017-08-07T22:00:20.647Z,17.70
2017-08-07T22:02:48.156Z,17.70
2017-08-07T22:05:15.979Z,17.70
2017-08-07T22:07:43.512Z,17.60
2017-08-07T22:10:11.010Z,17.50
2017-08-07T22:12:39.067Z,17.50
2017-08-07T22:15:06.572Z,17.40
2017-08-07T22:17:34.075Z,17.50
2017-08-07T22:20:01.633Z,17.50
2017-08-07T22:22:29.196Z,17.50
2017-08-07T22:24:56.730Z,17.50
2017-08-07T22:27:24.507Z,17.60
2017-08-07T22:29:52.054Z,17.50
2017-08-07T22:32:19.554Z,17.40
2017-08-07T22:34:47.846Z,17.30
2017-08-07T22:37:15.342Z,17.30
2017-08-07T22:39:42.843Z,17.30
2017-08-07T22:42:10.366Z,17.20
2017-08-07T22:44:37.874Z,17.20
2017-08-07T22:47:05.474Z,17.10
2017-08-07T22:49:33.272Z,17.00
2017-08-07T22:52:00.831Z,16.90
2017-08-07T22:54:28.327Z,16.80
2017-08-07T22:56:56.278Z,16.80
2017-08-07T22:59:23.811Z,16.90
2017-08-07T23:01:51.333Z,16.70
2017-08-07T23:04:19.146Z,16.70
2017-08-07T23:06:46.692Z,16.60
2017-08-07T23:09:14.231Z,16.60
2017-08-07T23:11:41.795Z,16.60
2017-08-07T23:14:09.300Z,16.60
2017-08-07T23:16:36.804Z,16.70
2017-08-07T23:19:04.479Z,16.60
2017-08-07T23:21:31.996Z,16.50
2017-08-07T23:23:59.502Z,16.40
2017-08-07T23:26:27.397Z,16.40
2017-08-07T23:28:54.912Z,16.30
2017-08-07T23:31:22.418Z,16.20
2017-08-07T23:33:50.247Z,16.20
2017-08-07T23:36:17.772Z,16.30
2017-08-07T23:38:45.350Z,16.30
2017-08-07T23:41:13.169Z,16.20
2017-08-07T23:43:40.710Z,16.10
2017-08-07T23:46:08.213Z,15.90
2017-08-07T23:48:35.787Z,15.90
2017-08-07T23:51:03.788Z,15.90
2017-08-07T23:53:31.332Z,15.90
2017-08-07T23:55:59.213Z,15.90
2017-08-07T23:58:26.697Z,15.90
